CMA CGM Herodote — MFEP — position and weather

sailwx.info

Track history (hours):
 
Tides and Currents Weather Stations Pressure Air Temp Water Temp Dewpoint Dewpoint Depression Visibility Wind Speed Wind Dir Waves Ship Positions

CMA CGM Herodote

Last reported at 2018-Jan-11 06:59 UTC. Time now 2018-Jan-18 10:17 UTC.
Position N 36°01' E 013°55'.

Length 170 m; draft 8.5 m.

Type: Cargo ship. MMSI: 235051085.

Date/timePositionNaut miles runAvg speedWind from/ knotsBaromVisibWave heightAir tempDewpointWater temp
2018-Jan-11 06:59N 36°01' E 013°55'815.1
2018-Jan-11 06:28N 35°56' E 014°03'714.7
2018-Jan-11 05:59N 35°52' E 014°10'714.5
2018-Jan-11 05:29N 35°48' E 014°18'714.1
2018-Jan-11 04:59N 35°45' E 014°26'712.3
2018-Jan-11 04:23N 35°48' E 014°34'2 0.1
2018-Jan-10 16:54N 35°49' E 014°33'2 5.7
2018-Jan-10 16:28N 35°48' E 014°35'2 5.0
2018-Jan-10 16:00N 35°46' E 014°37'1 2.7
2018-Jan-10 15:30N 35°45' E 014°38'1 1.8
2018-Jan-10 14:46N 35°47' E 014°38'1 1.7
2018-Jan-10 14:20N 35°47' E 014°38'1 3.5
2018-Jan-10 14:00N 35°48' E 014°39'510.3
2018-Jan-10 13:30N 35°51' E 014°44'1 1.9
2018-Jan-10 13:00N 35°51' E 014°45'0 0.1
2018-Jan-10 12:28N 35°51' E 014°45'0 0.1
2018-Jan-10 12:00N 35°51' E 014°45'0 0.1
2018-Jan-10 11:29N 35°51' E 014°45'0 0.0
2018-Jan-10 11:00N 35°51' E 014°45'0 0.1
2018-Jan-10 10:30N 35°51' E 014°45'0 0.4
2018-Jan-10 10:00N 35°51' E 014°45'611.0
2018-Jan-10 09:29N 35°55' E 014°39'510.6
2018-Jan-10 09:00N 35°55' E 014°33'2 0.4
2018-Jan-10 02:56N 35°53' E 014°31'0 0.0
2018-Jan-09 22:47N 35°53' E 014°31'0 0.0
2018-Jan-09 22:20N 35°53' E 014°31'0 0.0
2018-Jan-09 21:59N 35°53' E 014°31'0 0.0
2018-Jan-09 15:46N 35°53' E 014°31'2 0.3
2018-Jan-09 08:37N 35°55' E 014°32'1 4.9
2018-Jan-09 08:30N 35°55' E 014°32'1 1.3
2018-Jan-09 08:00N 35°56' E 014°33'1 1.8
2018-Jan-09 07:30N 35°56' E 014°34'2 4.6
2018-Jan-09 07:00N 35°55' E 014°36'3 6.5
2018-Jan-09 06:30N 35°54' E 014°40'4 8.7
2018-Jan-09 06:00N 35°52' E 014°45'0 0.1
2018-Jan-09 04:18N 35°52' E 014°45'0 0.0
2018-Jan-09 03:42N 35°52' E 014°45'0 0.0
2018-Jan-09 03:12N 35°52' E 014°45'0 0.0
2018-Jan-08 15:45N 35°52' E 014°45'0 0.1
2018-Jan-08 15:30N 35°52' E 014°45'0 0.0
2018-Jan-08 15:00N 35°52' E 014°45'0 0.0
2018-Jan-08 14:21N 35°52' E 014°45'0 0.1
2018-Jan-08 13:57N 35°52' E 014°45'0 0.0
2018-Jan-08 13:30N 35°52' E 014°45'0 0.0
2018-Jan-08 12:39N 35°52' E 014°45'0 0.0
2018-Jan-08 12:09N 35°52' E 014°45'0 0.0
2018-Jan-08 11:24N 35°52' E 014°45'0 0.0
2018-Jan-08 10:21N 35°52' E 014°45'0 0.0
2018-Jan-08 09:21N 35°52' E 014°45'0 0.0
2018-Jan-08 08:27N 35°52' E 014°45'0 0.0
2018-Jan-08 07:12N 35°52' E 014°45'0 0.0
2018-Jan-08 01:36N 35°52' E 014°45'0 0.0
2018-Jan-08 01:21N 35°52' E 014°45'0 0.0
2018-Jan-07 21:30N 35°52' E 014°45'0 0.0
2018-Jan-07 20:36N 35°52' E 014°45'0 0.0
2018-Jan-07 20:24N 35°52' E 014°45'0 0.0
2018-Jan-07 19:48N 35°52' E 014°45'0 0.1
2018-Jan-07 19:18N 35°52' E 014°45'0 0.0
2018-Jan-07 18:51N 35°52' E 014°45'0 0.0
2018-Jan-07 18:21N 35°52' E 014°45'0 0.0
2018-Jan-07 17:42N 35°52' E 014°45'0 0.1
2018-Jan-07 17:30N 35°52' E 014°45'0 0.0
2018-Jan-07 17:00N 35°52' E 014°45'0 0.0
2018-Jan-07 16:30N 35°52' E 014°45'0 0.3
2018-Jan-07 16:00N 35°52' E 014°45'2 4.8
2018-Jan-07 15:30N 35°50' E 014°42'612.1
2018-Jan-07 15:00N 35°48' E 014°36'3 6.8
2018-Jan-07 14:30N 35°49' E 014°32'0 0.0
2018-Jan-07 13:51N 35°49' E 014°32'0 0.0
2018-Jan-07 01:57N 35°49' E 014°32'0 0.2
2018-Jan-07 01:23N 35°49' E 014°32'5 4.5
2018-Jan-07 00:13N 35°47' E 014°38'1 4.5
2018-Jan-07 00:00N 35°47' E 014°39'2 3.1
2018-Jan-06 23:29N 35°48' E 014°41'3 0.5
2018-Jan-06 15:59N 35°51' E 014°43'0 0.0
2018-Jan-06 15:29N 35°51' E 014°43'0 0.0
2018-Jan-06 14:59N 35°51' E 014°43'0 0.0
2018-Jan-06 13:20N 35°51' E 014°43'0 0.1
2018-Jan-06 12:56N 35°51' E 014°43'1 3.3
2018-Jan-06 12:30N 35°51' E 014°45'510.4
2018-Jan-06 12:00N 35°46' E 014°47'612.6
2018-Jan-06 11:29N 35°44' E 014°55'612.3
2018-Jan-06 11:00N 35°44' E 015°02'612.3
2018-Jan-06 10:30N 35°44' E 015°10'50812.6
2018-Jan-04 18:11N 34°37' E 025°26'2511.9
2018-Jan-04 16:04N 34°36' E 025°56'112.7
2018-Jan-04 15:59N 34°36' E 025°57'  
Track history (hours):
 
Tides and Currents Weather Stations Pressure Air Temp Water Temp Dewpoint Dewpoint Depression Visibility Wind Speed Wind Dir Waves Ship Positions

CMA CGM Herodote

Last reported at 2018-Jan-11 06:59 UTC. Time now 2018-Jan-18 10:17 UTC.
Position N 36°01' E 013°55'.

Length 170 m; draft 8.5 m.

Type: Cargo ship. MMSI: 235051085.

Date/timePositionNaut miles runAvg speedWind from/ knotsBaromVisibWave heightAir tempDewpointWater temp
2018-Jan-11 06:59N 36°01' E 013°55'815.1
2018-Jan-11 06:28N 35°56' E 014°03'714.7
2018-Jan-11 05:59N 35°52' E 014°10'714.5
2018-Jan-11 05:29N 35°48' E 014°18'714.1
2018-Jan-11 04:59N 35°45' E 014°26'712.3
2018-Jan-11 04:23N 35°48' E 014°34'2 0.1
2018-Jan-10 16:54N 35°49' E 014°33'2 5.7
2018-Jan-10 16:28N 35°48' E 014°35'2 5.0
2018-Jan-10 16:00N 35°46' E 014°37'1 2.7
2018-Jan-10 15:30N 35°45' E 014°38'1 1.8
2018-Jan-10 14:46N 35°47' E 014°38'1 1.7
2018-Jan-10 14:20N 35°47' E 014°38'1 3.5
2018-Jan-10 14:00N 35°48' E 014°39'510.3
2018-Jan-10 13:30N 35°51' E 014°44'1 1.9
2018-Jan-10 13:00N 35°51' E 014°45'0 0.1
2018-Jan-10 12:28N 35°51' E 014°45'0 0.1
2018-Jan-10 12:00N 35°51' E 014°45'0 0.1
2018-Jan-10 11:29N 35°51' E 014°45'0 0.0
2018-Jan-10 11:00N 35°51' E 014°45'0 0.1
2018-Jan-10 10:30N 35°51' E 014°45'0 0.4
2018-Jan-10 10:00N 35°51' E 014°45'611.0
2018-Jan-10 09:29N 35°55' E 014°39'510.6
2018-Jan-10 09:00N 35°55' E 014°33'2 0.4
2018-Jan-10 02:56N 35°53' E 014°31'0 0.0
2018-Jan-09 22:47N 35°53' E 014°31'0 0.0
2018-Jan-09 22:20N 35°53' E 014°31'0 0.0
2018-Jan-09 21:59N 35°53' E 014°31'0 0.0
2018-Jan-09 15:46N 35°53' E 014°31'2 0.3
2018-Jan-09 08:37N 35°55' E 014°32'1 4.9
2018-Jan-09 08:30N 35°55' E 014°32'1 1.3
2018-Jan-09 08:00N 35°56' E 014°33'1 1.8
2018-Jan-09 07:30N 35°56' E 014°34'2 4.6
2018-Jan-09 07:00N 35°55' E 014°36'3 6.5
2018-Jan-09 06:30N 35°54' E 014°40'4 8.7
2018-Jan-09 06:00N 35°52' E 014°45'0 0.1
2018-Jan-09 04:18N 35°52' E 014°45'0 0.0
2018-Jan-09 03:42N 35°52' E 014°45'0 0.0
2018-Jan-09 03:12N 35°52' E 014°45'0 0.0
2018-Jan-08 15:45N 35°52' E 014°45'0 0.1
2018-Jan-08 15:30N 35°52' E 014°45'0 0.0
2018-Jan-08 15:00N 35°52' E 014°45'0 0.0
2018-Jan-08 14:21N 35°52' E 014°45'0 0.1
2018-Jan-08 13:57N 35°52' E 014°45'0 0.0
2018-Jan-08 13:30N 35°52' E 014°45'0 0.0
2018-Jan-08 12:39N 35°52' E 014°45'0 0.0
2018-Jan-08 12:09N 35°52' E 014°45'0 0.0
2018-Jan-08 11:24N 35°52' E 014°45'0 0.0
2018-Jan-08 10:21N 35°52' E 014°45'0 0.0
2018-Jan-08 09:21N 35°52' E 014°45'0 0.0
2018-Jan-08 08:27N 35°52' E 014°45'0 0.0
2018-Jan-08 07:12N 35°52' E 014°45'0 0.0
2018-Jan-08 01:36N 35°52' E 014°45'0 0.0
2018-Jan-08 01:21N 35°52' E 014°45'0 0.0
2018-Jan-07 21:30N 35°52' E 014°45'0 0.0
2018-Jan-07 20:36N 35°52' E 014°45'0 0.0
2018-Jan-07 20:24N 35°52' E 014°45'0 0.0
2018-Jan-07 19:48N 35°52' E 014°45'0 0.1
2018-Jan-07 19:18N 35°52' E 014°45'0 0.0
2018-Jan-07 18:51N 35°52' E 014°45'0 0.0
2018-Jan-07 18:21N 35°52' E 014°45'0 0.0
2018-Jan-07 17:42N 35°52' E 014°45'0 0.1
2018-Jan-07 17:30N 35°52' E 014°45'0 0.0
2018-Jan-07 17:00N 35°52' E 014°45'0 0.0
2018-Jan-07 16:30N 35°52' E 014°45'0 0.3
2018-Jan-07 16:00N 35°52' E 014°45'2 4.8
2018-Jan-07 15:30N 35°50' E 014°42'612.1
2018-Jan-07 15:00N 35°48' E 014°36'3 6.8
2018-Jan-07 14:30N 35°49' E 014°32'0 0.0
2018-Jan-07 13:51N 35°49' E 014°32'0 0.0
2018-Jan-07 01:57N 35°49' E 014°32'0 0.2
2018-Jan-07 01:23N 35°49' E 014°32'5 4.5
2018-Jan-07 00:13N 35°47' E 014°38'1 4.5
2018-Jan-07 00:00N 35°47' E 014°39'2 3.1
2018-Jan-06 23:29N 35°48' E 014°41'3 0.5
2018-Jan-06 15:59N 35°51' E 014°43'0 0.0
2018-Jan-06 15:29N 35°51' E 014°43'0 0.0
2018-Jan-06 14:59N 35°51' E 014°43'0 0.0
2018-Jan-06 13:20N 35°51' E 014°43'0 0.1
2018-Jan-06 12:56N 35°51' E 014°43'1 3.3
2018-Jan-06 12:30N 35°51' E 014°45'510.4
2018-Jan-06 12:00N 35°46' E 014°47'612.6
2018-Jan-06 11:29N 35°44' E 014°55'612.3
2018-Jan-06 11:00N 35°44' E 015°02'612.3
2018-Jan-06 10:30N 35°44' E 015°10'50812.6
2018-Jan-04 18:11N 34°37' E 025°26'2511.9
2018-Jan-04 16:04N 34°36' E 025°56'112.7
2018-Jan-04 15:59N 34°36' E 025°57'  

Dump ship's entire track history